Flight Track Log - Related Links

Times and Time Zones

All times are in EDT time to prevent confusion due to time zone crossing. See the TAM3519 flight status page for this flight to view local times or setup timezone preferences in your user account.


Time Position Orientation Groundspeed Altitude Reporting Facility
EDT Latitude Longitude Course Direction KTS MPH feet Rate Location/Type
Wed 08:50:00 PM -16.7645 -46.4180 122° Southeast  Level Estimated
Wed 08:51:00 PM -16.8093 -46.3429 122° Southeast  Level Estimated
Wed 08:52:00 PM -16.8541 -46.2678 122° Southeast  Level Estimated
Wed 08:53:00 PM -16.8988 -46.1926 122° Southeast  Level Estimated
Wed 08:54:00 PM -16.9436 -46.1174 122° Southeast  Level Estimated
Wed 08:55:00 PM -16.9883 -46.0421 122° Southeast  Level Estimated
Wed 08:56:00 PM -17.0329 -45.9669 122° Southeast  Level Estimated
Wed 08:57:00 PM -17.0776 -45.8915 122° Southeast  Level Estimated
Wed 08:58:00 PM -17.1222 -45.8162 122° Southeast  Level Estimated
Wed 08:59:00 PM -17.1668 -45.7408 122° Southeast  Level Estimated
Wed 09:00:00 PM -17.2114 -45.6654 122° Southeast  Level Estimated
Wed 09:01:00 PM -17.2559 -45.5899 122° Southeast  Level Estimated
Wed 09:02:00 PM -17.3004 -45.5144 122° Southeast  Level Estimated
Wed 09:03:00 PM -17.3449 -45.4389 122° Southeast  Level Estimated
Wed 09:04:00 PM -17.3894 -45.3633 122° Southeast  Level Estimated
Wed 09:05:00 PM -17.4338 -45.2877 122° Southeast  Level Estimated
Wed 09:06:00 PM -17.4782 -45.2121 122° Southeast  Level Estimated
Wed 09:07:00 PM -17.5226 -45.1364 122° Southeast  Level Estimated
Wed 09:08:00 PM -17.5669 -45.0607 122° Southeast  Level Estimated
Wed 09:09:00 PM -17.6112 -44.9850 122° Southeast  Level Estimated
Wed 09:10:00 PM -17.6555 -44.9092 122° Southeast  Level Estimated
Wed 09:11:00 PM -17.6997 -44.8333 121° Southeast  Level Estimated
Wed 09:12:00 PM -17.7440 -44.7575 121° Southeast  Level Estimated
Wed 09:13:00 PM -17.7882 -44.6816 121° Southeast  Level Estimated
Wed 09:14:00 PM -17.8323 -44.6056 121° Southeast  Level Estimated
Wed 09:15:00 PM -17.8764 -44.5297 121° Southeast  Level Estimated
Wed 09:16:00 PM -17.9206 -44.4536 121° Southeast  Level Estimated
Wed 09:17:00 PM -17.9646 -44.3776 121° Southeast  Level Estimated
Wed 09:18:00 PM -18.0087 -44.3015 121° Southeast  Level Estimated
Wed 09:19:00 PM -18.0527 -44.2254 121° Southeast  Level Estimated
Wed 09:20:00 PM -18.0967 -44.1492 121° Southeast  Level Estimated
Wed 09:21:00 PM -18.1407 -44.0730 121° Southeast  Level Estimated
Wed 09:22:00 PM -18.1846 -43.9968 121° Southeast  Level Estimated
Wed 09:23:00 PM -18.2285 -43.9205 121° Southeast  Level Estimated
Wed 09:24:00 PM -18.2724 -43.8442 121° Southeast  Level Estimated
Wed 09:25:00 PM -18.3162 -43.7678 121° Southeast  Level Estimated
Wed 09:26:00 PM -18.3600 -43.6914 121° Southeast  Level Estimated
Wed 09:27:00 PM -18.4038 -43.6150 121° Southeast  Level Estimated
Wed 09:28:00 PM -18.4475 -43.5385 121° Southeast  Level Estimated
Wed 09:29:00 PM -18.4912 -43.4620 121° Southeast  Level Estimated
Wed 09:30:00 PM -18.5349 -43.3854 121° Southeast  Level Estimated
Wed 09:31:00 PM -18.5786 -43.3088 121° Southeast  Level Estimated
Wed 09:32:00 PM -18.6222 -43.2322 121° Southeast  Level Estimated
Wed 09:33:00 PM -18.6658 -43.1555 121° Southeast  Level Estimated
Wed 09:34:00 PM -18.7093 -43.0788 121° Southeast  Level Estimated
Wed 09:35:00 PM -18.7529 -43.0021 121° Southeast  Level Estimated
Wed 09:36:00 PM -18.7964 -42.9253 121° Southeast  Level Estimated
Wed 09:37:00 PM -18.8398 -42.8484 121° Southeast  Level Estimated
Wed 09:38:00 PM -18.8833 -42.7716 121° Southeast  Level Estimated
Wed 09:39:00 PM -18.9267 -42.6947 121° Southeast  Level Estimated
Wed 09:40:00 PM -18.9700 -42.6177 121° Southeast  Level Estimated
Wed 09:41:00 PM -19.0134 -42.5407 121° Southeast  Level Estimated
Wed 09:42:00 PM -19.0567 -42.4637 121° Southeast  Level Estimated
Wed 09:43:00 PM -19.1000 -42.3866 121° Southeast  Level Estimated
Wed 09:44:00 PM -19.1432 -42.3095 121° Southeast  Level Estimated
Wed 09:45:00 PM -19.1864 -42.2324 121° Southeast  Level Estimated
Wed 09:46:00 PM -19.2296 -42.1552 121° Southeast  Level Estimated

Login

Don't have an account? Register now (free) for customized features, flight alerts, and more!